Time;durP1;ratioP1;P1;durP2;ratioP2;P2;SDS_P1;SDS_P2;PMS_P1;PMS_P2;Temp;Humidity;BMP_temperature;BMP_pressure;BME280_temperature;BME280_humidity;BME280_pressure;Samples;Min_cycle;Max_cycle;Signal;HPM_P1;HPM_P2
2022/02/05 00:01:37;;;;;;;4.87;2.30;;;;;;;5.49;87.15;99496.39;1690008;84;20980;-75
2022/02/05 00:04:15;;;;;;;3.12;1.87;;;;;;;5.47;87.17;99499.41;1674015;84;21047;-75
2022/02/05 00:07:00;;;;;;;2.45;1.70;;;;;;;5.44;87.21;99491.32;1690853;83;20965;-75
2022/02/05 00:40:19;;;;;;;2.85;2.50;;;;;;;5.34;87.30;99461.55;1687908;84;21081;-76
2022/02/05 00:42:57;;;;;;;4.25;2.45;;;;;;;5.33;87.27;99461.98;1688655;84;21153;-75
2022/02/05 00:45:49;;;;;;;3.40;2.65;;;;;;;5.35;87.29;99466.24;1678188;83;21056;-75
2022/02/05 00:48:32;;;;;;;3.80;2.12;;;;;;;5.34;87.25;99473.09;1698310;82;21422;-76
2022/02/05 00:51:23;;;;;;;2.22;1.80;;;;;;;5.36;87.24;99464.94;1666643;83;21266;-76
2022/02/05 00:54:13;;;;;;;3.72;2.08;;;;;;;5.37;87.22;99461.52;1666052;86;20980;-75
2022/02/05 00:59:47;;;;;;;4.80;2.25;;;;;;;5.38;87.23;99466.20;1686184;84;21131;-75
2022/02/05 01:02:31;;;;;;;2.30;1.67;;;;;;;5.38;87.21;99459.36;1693279;84;21532;-76
2022/02/05 01:05:17;;;;;;;1.65;1.50;;;;;;;5.42;87.22;99458.89;1692788;84;21048;-75
2022/02/05 01:08:03;;;;;;;3.30;1.52;;;;;;;5.43;87.24;99453.73;1694591;84;20941;-76
2022/02/05 01:10:47;;;;;;;1.98;1.12;;;;;;;5.45;87.21;99455.00;1694806;84;20901;-76
2022/02/05 01:13:34;;;;;;;1.67;1.30;;;;;;;5.46;87.20;99452.84;1693926;84;20933;-76
2022/02/05 01:16:38;;;;;;;1.75;1.40;;;;;;;5.48;87.19;99445.55;1706532;83;20913;-76
2022/02/05 01:19:12;;;;;;;3.15;1.30;;;;;;;5.51;87.21;99470.30;1694818;83;20913;-76
2022/02/05 01:21:57;;;;;;;0.93;0.80;;;;;;;5.51;87.20;99503.63;1684232;84;20913;-76
2022/02/05 01:24:41;;;;;;;;;;;;;;;5.48;87.09;99539.13;1697204;84;20936;-75
2022/02/05 01:27:33;;;;;;;0.57;0.50;;;;;;;5.33;86.78;99572.63;1695197;84;20107;-75
2022/02/05 01:30:20;;;;;;;0.35;0.35;;;;;;;5.12;86.61;99599.38;1695004;84;20937;-75
2022/02/05 01:33:19;;;;;;;1.50;0.30;;;;;;;4.87;86.54;99628.20;1693276;84;20921;-75
2022/02/05 01:57:09;;;;;;;1.45;1.00;;;;;;;3.25;86.68;99757.33;1675642;84;21564;-76
2022/02/05 02:04:45;;;;;;;4.97;0.68;;;;;;;3.16;86.78;99780.32;1690903;84;20982;-75
2022/02/05 02:05:54;;;;;;;0.57;0.30;;;;;;;3.02;86.75;99798.64;1689448;84;21100;-75
2022/02/05 02:11:38;;;;;;;0.60;0.50;;;;;;;2.89;86.79;99823.30;1662568;84;21086;-75
2022/02/05 02:23:08;;;;;;;0.53;0.30;;;;;;;2.72;86.80;99857.28;1689043;84;21496;-76
2022/02/05 02:25:57;;;;;;;0.75;0.50;;;;;;;2.70;86.83;99866.63;1663897;84;21131;-76
2022/02/05 02:29:49;;;;;;;1.17;0.30;;;;;;;2.65;86.87;99883.20;1692924;83;21272;-75
2022/02/05 02:31:37;;;;;;;0.62;0.30;;;;;;;2.62;86.75;99895.53;1683969;84;21861;-75
2022/02/05 02:34:23;;;;;;;1.70;0.60;;;;;;;2.57;86.69;99900.22;1688359;84;21050;-76
2022/02/05 02:37:09;;;;;;;;;;;;;;;2.53;86.70;99909.97;1691262;84;21135;-76
2022/02/05 02:40:19;;;;;;;0.70;0.50;;;;;;;2.49;86.73;99906.55;1668201;84;20217;-76
2022/02/05 02:43:02;;;;;;;0.65;0.30;;;;;;;2.45;86.76;99925.24;1689103;84;21079;-75
2022/02/05 02:45:44;;;;;;;1.07;0.47;;;;;;;2.44;86.81;99926.51;1687714;83;21056;-76
2022/02/05 02:48:27;;;;;;;0.90;0.20;;;;;;;2.42;86.80;99940.53;1697316;83;21064;-75
2022/02/05 02:57:12;;;;;;;1.00;0.40;;;;;;;2.36;86.84;99963.45;1688439;84;21540;-75
2022/02/05 02:59:50;;;;;;;1.65;0.93;;;;;;;2.36;86.85;99971.53;1689055;84;21056;-76
2022/02/05 03:02:33;;;;;;;1.85;0.82;;;;;;;2.37;86.83;99969.41;1688320;84;21582;-75
2022/02/05 03:05:18;;;;;;;1.32;0.65;;;;;;;2.37;86.89;99979.19;1660968;86;21429;-75
2022/02/05 03:08:03;;;;;;;1.20;0.50;;;;;;;2.38;86.90;99986.00;1661261;86;21119;-75
2022/02/05 03:10:48;;;;;;;3.70;0.78;;;;;;;2.37;86.86;99988.13;1673157;84;21136;-76
2022/02/05 03:13:33;;;;;;;1.57;0.50;;;;;;;2.38;86.86;99990.25;1688852;84;21056;-76
2022/02/05 03:16:26;;;;;;;1.10;0.68;;;;;;;2.38;86.86;99993.66;1700505;83;21087;-76
2022/02/05 03:21:51;;;;;;;4.10;0.88;;;;;;;2.40;86.87;100023.01;1688864;84;21619;-76
2022/02/05 03:24:36;;;;;;;1.47;0.62;;;;;;;2.42;86.94;100030.25;1689124;84;21041;-75
2022/02/05 03:27:21;;;;;;;0.68;0.30;;;;;;;2.43;86.93;100031.54;1686596;84;21086;-76
2022/02/05 03:30:07;;;;;;;2.73;0.60;;;;;;;2.45;86.96;100031.55;1690829;84;21236;-76
2022/02/05 03:32:52;;;;;;;2.12;0.50;;;;;;;2.46;86.90;100043.47;1690438;84;20972;-75
2022/02/05 03:35:36;;;;;;;4.35;1.10;;;;;;;2.47;86.93;100042.20;1689244;84;21100;-75
2022/02/05 03:38:21;;;;;;;1.82;0.62;;;;;;;2.48;86.95;100045.19;1688980;84;21133;-75
2022/02/05 03:41:06;;;;;;;3.37;0.60;;;;;;;2.49;86.93;100052.42;1688975;84;21579;-76
2022/02/05 03:43:50;;;;;;;2.20;0.57;;;;;;;2.49;86.91;100056.25;1688665;84;22561;-77
2022/02/05 03:46:36;;;;;;;2.35;0.80;;;;;;;2.50;86.91;100065.61;1708056;83;21139;-76
2022/02/05 03:49:22;;;;;;;3.72;0.80;;;;;;;2.50;86.94;100067.74;1692138;84;21107;-76
2022/02/05 03:52:07;;;;;;;3.37;1.05;;;;;;;2.51;86.95;100062.22;1693184;84;21060;-75
2022/02/05 03:54:52;;;;;;;3.02;1.05;;;;;;;2.52;86.96;100074.98;1693057;84;21108;-75
2022/02/05 03:57:37;;;;;;;2.27;0.95;;;;;;;2.53;86.95;100084.77;1692583;84;21564;-75
2022/02/05 04:00:21;;;;;;;2.52;0.60;;;;;;;2.54;86.99;100081.37;1690231;84;21099;-75
2022/02/05 04:03:07;;;;;;;4.28;0.57;;;;;;;2.56;87.01;100092.03;1666083;84;21080;-75
2022/02/05 04:05:52;;;;;;;4.35;0.62;;;;;;;2.56;86.95;100092.03;1665403;86;21136;-75
2022/02/05 04:08:37;;;;;;;6.83;1.15;;;;;;;2.54;86.87;100096.69;1683832;84;21292;-76
2022/02/05 04:17:28;;;;;;;1.90;0.47;;;;;;;2.49;86.91;100106.00;1684359;83;21092;-75
2022/02/05 04:20:13;;;;;;;4.65;1.22;;;;;;;2.49;86.98;100108.14;1693441;84;21035;-75
2022/02/05 04:22:58;;;;;;;4.75;1.20;;;;;;;2.50;87.01;100115.37;1693167;84;21062;-75
2022/02/05 04:25:42;;;;;;;7.90;1.02;;;;;;;2.50;87.00;100117.50;1693934;84;21064;-75
2022/02/05 04:28:27;;;;;;;6.03;1.02;;;;;;;2.51;86.98;100129.42;1692838;84;21072;-75
2022/02/05 04:31:12;;;;;;;4.75;0.90;;;;;;;2.52;87.01;100135.37;1693176;84;21047;-74
2022/02/05 04:33:56;;;;;;;7.78;1.12;;;;;;;2.54;87.06;100132.00;1690710;84;21060;-75
2022/02/05 04:36:41;;;;;;;2.70;0.80;;;;;;;2.56;87.03;100144.77;1693112;84;21060;-75
2022/02/05 04:39:26;;;;;;;2.25;0.80;;;;;;;2.57;87.06;100135.86;1680016;83;21094;-75
2022/02/05 04:42:18;;;;;;;3.17;0.90;;;;;;;2.58;87.01;100137.56;1683023;84;21639;-76
2022/02/05 04:47:57;;;;;;;6.08;0.90;;;;;;;2.59;87.02;100138.42;1717728;83;21115;-76
2022/02/05 04:56:29;;;;;;;3.20;1.25;;;;;;;2.59;87.02;100157.56;1689063;84;21118;-75
2022/02/05 04:59:26;;;;;;;3.50;1.00;;;;;;;2.59;87.01;100160.97;1688396;84;21076;-75
2022/02/05 05:05:05;;;;;;;4.75;0.85;;;;;;;2.59;87.03;100172.45;1682235;83;21375;-75
2022/02/05 05:10:44;;;;;;;5.20;1.47;;;;;;;2.57;86.96;100184.77;1678058;84;20929;-76
2022/02/05 05:13:33;;;;;;;3.20;0.80;;;;;;;2.54;86.94;100187.29;1690569;84;20957;-75
2022/02/05 05:22:00;;;;;;;1.92;0.80;;;;;;;2.48;87.00;100198.29;1673472;84;20941;-77
2022/02/05 05:24:44;;;;;;;2.98;0.82;;;;;;;2.49;87.00;100191.48;1682447;84;20953;-77
2022/02/05 05:27:30;;;;;;;4.28;0.85;;;;;;;2.48;86.97;100201.27;1690701;84;20917;-77
2022/02/05 05:30:15;;;;;;;2.58;0.60;;;;;;;2.47;87.02;100186.37;1690756;84;20956;-76
2022/02/05 05:33:00;;;;;;;5.47;1.05;;;;;;;2.49;87.05;100205.11;1672172;84;21128;-76
2022/02/05 05:35:44;;;;;;;8.65;1.80;;;;;;;2.50;87.08;100206.81;1688070;84;21450;-75
2022/02/05 05:38:29;;;;;;;3.30;1.20;;;;;;;2.52;87.09;100209.38;1678328;84;21067;-75
2022/02/05 05:41:14;;;;;;;4.30;1.07;;;;;;;2.55;87.10;100216.66;1688500;84;21062;-76
2022/02/05 05:46:49;;;;;;;5.92;0.95;;;;;;;2.59;87.11;100220.95;1695020;83;20929;-76
2022/02/05 05:49:56;;;;;;;4.53;1.10;;;;;;;2.62;87.13;100228.60;1694824;84;21060;-76
2022/02/05 05:52:22;;;;;;;4.20;1.20;;;;;;;2.65;87.11;100230.33;1695334;84;21064;-76
2022/02/05 05:55:07;;;;;;;6.17;0.88;;;;;;;2.66;87.10;100238.00;1694490;84;21096;-75
2022/02/05 05:57:54;;;;;;;1.95;0.98;;;;;;;2.68;87.08;100235.46;1695363;84;21107;-75
2022/02/05 06:00:40;;;;;;;8.05;2.27;;;;;;;2.69;87.06;100239.73;1695526;84;21535;-77
2022/02/05 06:03:24;;;;;;;8.25;1.05;;;;;;;2.70;87.07;100236.75;1692900;83;21063;-77
2022/02/05 06:06:09;;;;;;;5.17;1.20;;;;;;;2.72;87.11;100244.01;1689305;83;21087;-77
2022/02/05 06:08:53;;;;;;;6.37;1.15;;;;;;;2.74;87.09;100244.88;1679757;84;21072;-76
2022/02/05 06:11:38;;;;;;;4.58;1.17;;;;;;;2.74;87.09;100253.81;1693785;84;21547;-76
2022/02/05 06:14:26;;;;;;;4.42;0.93;;;;;;;2.76;87.11;100258.09;1695170;84;21046;-75
2022/02/05 06:17:11;;;;;;;3.45;1.30;;;;;;;2.77;87.14;100248.31;1709188;83;21000;-75
2022/02/05 06:19:55;;;;;;;7.25;1.37;;;;;;;2.78;87.14;100254.28;1695273;84;21091;-76
2022/02/05 06:22:40;;;;;;;6.22;1.32;;;;;;;2.81;87.14;100262.83;1673015;84;21091;-76
2022/02/05 06:25:25;;;;;;;8.28;1.72;;;;;;;2.83;87.15;100264.12;1694498;83;21103;-76
2022/02/05 06:28:10;;;;;;;6.12;1.60;;;;;;;2.82;87.13;100270.92;1694267;84;21064;-76
2022/02/05 06:30:55;;;;;;;5.80;1.42;;;;;;;2.85;87.16;100273.92;1694540;84;21092;-76
2022/02/05 06:33:39;;;;;;;5.00;1.42;;;;;;;2.86;87.13;100271.39;1694505;84;21092;-76
2022/02/05 06:36:24;;;;;;;5.65;1.80;;;;;;;2.87;87.13;100276.08;1693986;83;21140;-77
2022/02/05 06:39:09;;;;;;;2.92;1.32;;;;;;;2.87;87.13;100275.66;1694309;84;21021;-76
2022/02/05 06:41:54;;;;;;;9.30;2.02;;;;;;;2.90;87.13;100286.31;1695310;83;21092;-76
2022/02/05 06:44:39;;;;;;;3.52;1.10;;;;;;;2.91;87.18;100285.48;1697421;84;20912;-76
2022/02/05 06:47:23;;;;;;;8.68;1.70;;;;;;;2.93;87.16;100287.20;1694421;83;20961;-76
2022/02/05 06:50:08;;;;;;;6.60;1.52;;;;;;;2.95;87.13;100296.16;1689629;84;20950;-75
2022/02/05 06:52:53;;;;;;;8.43;2.70;;;;;;;2.95;87.16;100294.46;1690837;84;21469;-75
2022/02/05 06:55:37;;;;;;;8.05;2.37;;;;;;;2.97;87.18;100299.58;1691187;84;20984;-75
2022/02/05 06:58:21;;;;;;;7.83;3.47;;;;;;;2.99;87.20;100306.42;1690416;84;21405;-75
2022/02/05 07:01:06;;;;;;;13.43;3.87;;;;;;;3.00;87.19;100312.38;1692091;84;20953;-76
2022/02/05 07:03:50;;;;;;;8.18;2.60;;;;;;;3.03;87.19;100319.22;1697632;84;20893;-76
2022/02/05 07:06:35;;;;;;;7.28;2.12;;;;;;;3.04;87.24;100317.95;1703107;84;21378;-76
2022/02/05 07:09:21;;;;;;;5.87;2.00;;;;;;;3.06;87.21;100325.64;1680410;84;21417;-76
2022/02/05 07:12:09;;;;;;;6.12;1.50;;;;;;;3.09;87.22;100326.52;1675344;84;20931;-77
2022/02/05 07:17:47;;;;;;;5.25;1.40;;;;;;;3.15;87.26;100323.99;1694154;83;20914;-76
2022/02/05 07:20:44;;;;;;;;;;;;;;;3.19;87.22;100331.27;1687145;84;20929;-76
2022/02/05 07:23:47;;;;;;;7.72;1.85;;;;;;;3.21;87.20;100324.47;1687480;84;20131;-77
2022/02/05 07:29:24;;;;;;;4.35;1.52;;;;;;;3.24;87.16;100326.63;1690619;84;20981;-76
2022/02/05 07:32:08;;;;;;;9.88;2.35;;;;;;;3.28;87.17;100328.80;1688125;84;20921;-78
2022/02/05 07:34:52;;;;;;;9.03;3.22;;;;;;;3.30;87.15;100329.24;1690828;84;20923;-77
2022/02/05 07:37:37;;;;;;;6.17;4.00;;;;;;;3.30;87.13;100333.08;1690611;84;20915;-75
2022/02/05 07:40:21;;;;;;;9.03;2.92;;;;;;;3.33;87.17;100338.64;1687778;84;21016;-75
2022/02/05 07:43:06;;;;;;;8.03;2.20;;;;;;;3.35;87.14;100339.92;1688812;83;21100;-75
2022/02/05 07:45:50;;;;;;;8.40;1.95;;;;;;;3.36;87.18;100346.33;1691845;83;21131;-76
2022/02/05 07:48:37;;;;;;;6.20;2.27;;;;;;;3.39;87.14;100343.80;1641326;84;21043;-76
2022/02/05 07:51:22;;;;;;;10.32;3.00;;;;;;;3.42;87.15;100341.70;1678290;84;21436;-76
2022/02/05 07:54:10;;;;;;;12.40;4.12;;;;;;;3.45;87.18;100346.41;1682550;84;21058;-76
2022/02/05 07:56:53;;;;;;;7.45;3.72;;;;;;;3.47;87.16;100347.70;1684014;83;21036;-76
2022/02/05 07:59:38;;;;;;;7.97;3.58;;;;;;;3.54;87.23;100343.94;1688229;84;21062;-75
2022/02/05 08:02:22;;;;;;;9.18;2.60;;;;;;;3.59;87.22;100355.05;1683996;84;21130;-75
2022/02/05 08:05:08;;;;;;;6.87;2.10;;;;;;;3.62;87.15;100363.17;1682214;84;21072;-75
2022/02/05 08:07:53;;;;;;;7.70;2.25;;;;;;;3.65;87.15;100361.88;1688008;84;21488;-75
2022/02/05 08:10:47;;;;;;;6.12;2.20;;;;;;;3.70;87.08;100359.36;1679193;83;21131;-75
2022/02/05 08:13:28;;;;;;;7.90;2.02;;;;;;;3.74;87.16;100370.05;1689462;84;20974;-76
2022/02/05 08:16:27;;;;;;;6.90;2.22;;;;;;;3.79;87.12;100369.66;1690907;83;21439;-76
2022/02/05 08:18:58;;;;;;;6.47;1.50;;;;;;;3.80;87.07;100359.45;1690492;84;20993;-76
2022/02/05 08:21:42;;;;;;;4.17;1.50;;;;;;;3.79;87.05;100372.22;1669954;84;110183;-76
2022/02/05 08:24:27;;;;;;;9.73;3.42;;;;;;;3.77;87.01;100368.38;1683180;84;21785;-77
2022/02/05 08:27:12;;;;;;;4.53;2.30;;;;;;;3.77;87.04;100366.23;1678153;84;37894;-77
2022/02/05 08:29:59;;;;;;;3.90;1.90;;;;;;;3.78;87.12;100369.23;1672714;84;20963;-77
2022/02/05 08:32:44;;;;;;;;;;;;;;;3.77;86.98;100376.05;1692795;84;20957;-77
2022/02/05 08:35:29;;;;;;;6.75;1.70;;;;;;;3.79;86.98;100377.34;1689889;84;20142;-77
2022/02/05 08:38:13;;;;;;;3.87;2.10;;;;;;;3.81;87.07;100384.59;1688231;84;21593;-76
2022/02/05 08:40:58;;;;;;;6.15;2.62;;;;;;;3.83;87.07;100386.75;1687503;84;21065;-76
2022/02/05 08:43:43;;;;;;;3.60;1.70;;;;;;;3.86;87.11;100385.06;1676993;84;21121;-75
2022/02/05 08:46:27;;;;;;;6.40;1.70;;;;;;;3.91;87.05;100392.78;1684130;83;21092;-75
2022/02/05 08:49:11;;;;;;;5.67;2.10;;;;;;;3.91;87.03;100387.23;1684880;83;21102;-76
2022/02/05 08:52:00;;;;;;;12.00;3.35;;;;;;;3.93;87.05;100382.13;1672900;83;707750;-75
2022/02/05 08:54:45;;;;;;;6.53;2.30;;;;;;;3.92;87.03;100371.47;1686618;84;21070;-76
2022/02/05 08:57:32;;;;;;;6.03;2.30;;;;;;;3.95;87.07;100375.33;1681728;84;21108;-76
2022/02/05 09:00:24;;;;;;;8.15;2.60;;;;;;;3.97;87.04;100383.45;1684616;84;21432;-78
2022/02/05 09:03:10;;;;;;;7.03;1.87;;;;;;;4.01;87.06;100392.42;1686685;83;21572;-79
2022/02/05 09:05:51;;;;;;;7.08;2.65;;;;;;;4.05;87.04;100379.66;1684199;84;21064;-78
2022/02/05 09:08:43;;;;;;;4.87;2.02;;;;;;;4.08;86.96;100387.78;1687559;84;21060;-79
2022/02/05 09:14:15;;;;;;;6.35;1.82;;;;;;;4.11;87.01;100386.10;1690246;83;21615;-78
2022/02/05 09:16:58;;;;;;;7.65;2.10;;;;;;;4.12;86.97;100385.25;1688942;83;21478;-78
2022/02/05 09:19:43;;;;;;;7.20;2.25;;;;;;;4.14;87.00;100381.42;1669653;84;21070;-78
2022/02/05 09:22:29;;;;;;;8.63;3.05;;;;;;;4.16;86.95;100393.80;1687608;84;21136;-78
2022/02/05 09:25:15;;;;;;;7.15;2.72;;;;;;;4.18;86.90;100389.10;1686179;84;21129;-78
2022/02/05 09:28:00;;;;;;;6.12;2.17;;;;;;;4.23;86.90;100388.70;1685537;84;21068;-78
2022/02/05 09:33:48;;;;;;;4.20;1.87;;;;;;;4.28;86.84;100406.23;1688966;83;21041;-76
2022/02/05 09:36:35;;;;;;;4.87;2.12;;;;;;;4.28;86.80;100406.65;1688103;84;21103;-78
2022/02/05 09:39:19;;;;;;;6.40;2.45;;;;;;;4.29;86.79;100407.08;1691063;84;20972;-76
2022/02/05 09:42:04;;;;;;;7.42;2.00;;;;;;;4.30;86.78;100414.77;1663888;84;21000;-77
2022/02/05 09:44:49;;;;;;;2.95;1.70;;;;;;;4.29;86.71;100415.62;1689047;84;20921;-78
2022/02/05 09:47:34;;;;;;;6.35;1.85;;;;;;;4.27;86.72;100416.45;1692455;83;20999;-78
2022/02/05 09:50:21;;;;;;;7.33;1.98;;;;;;;4.24;86.70;100416.44;1688977;84;20925;-76
2022/02/05 09:53:14;;;;;;;5.92;1.87;;;;;;;4.19;86.71;100421.52;1681567;84;21886;-76
2022/02/05 09:55:52;;;;;;;;;;;;;;;4.18;86.75;100440.70;1693708;84;20942;-76
2022/02/05 09:58:38;;;;;;;9.05;1.92;;;;;;;4.15;86.63;100431.75;1685827;84;20130;-83
2022/02/05 10:01:29;;;;;;;9.55;2.60;;;;;;;4.11;86.74;100441.11;1691387;83;20965;-83
2022/02/05 10:04:12;;;;;;;6.83;2.30;;;;;;;4.09;86.79;100440.24;1688805;83;21038;-81
2022/02/05 10:07:01;;;;;;;7.17;2.15;;;;;;;4.08;86.77;100440.23;1688961;84;21137;-81
2022/02/05 10:10:02;;;;;;;9.35;2.52;;;;;;;4.10;86.83;100440.67;1686467;84;21141;-81
2022/02/05 10:13:15;;;;;;;7.60;3.62;;;;;;;4.14;86.82;100445.39;1686529;83;21080;-77
2022/02/05 10:16:01;;;;;;;6.92;2.00;;;;;;;4.20;86.80;100440.29;1690000;83;21113;-78
2022/02/05 10:18:45;;;;;;;9.33;2.37;;;;;;;4.26;86.79;100448.01;1687856;84;21414;-76
2022/02/05 10:21:31;;;;;;;8.80;1.98;;;;;;;4.27;86.70;100445.46;1661213;84;21563;-76
2022/02/05 10:24:15;;;;;;;5.03;1.70;;;;;;;4.27;86.64;100448.02;1689264;84;21340;-80
2022/02/05 10:27:00;;;;;;;7.42;1.50;;;;;;;4.28;86.56;100439.92;1689674;84;21742;-83
2022/02/05 10:29:50;;;;;;;4.90;1.67;;;;;;;4.28;86.52;100437.36;1689415;84;21045;-82
2022/02/05 10:32:44;;;;;;;5.47;1.50;;;;;;;4.28;86.54;100454.00;1661013;86;21116;-82
2022/02/05 10:35:36;;;;;;;7.35;1.60;;;;;;;4.25;86.51;100451.41;1685409;84;21078;-81
2022/02/05 10:44:15;;;;;;;4.67;1.80;;;;;;;4.17;86.47;100451.36;1638561;85;21044;-81
2022/02/05 10:47:00;;;;;;;3.40;1.80;;;;;;;4.15;86.49;100447.11;1649360;85;21087;-80
2022/02/05 10:49:50;;;;;;;7.15;1.55;;;;;;;4.17;86.60;100460.73;1674520;83;21040;-82
2022/02/05 10:52:35;;;;;;;4.17;1.35;;;;;;;4.21;86.65;100449.26;1682840;84;21280;-83
2022/02/05 10:55:28;;;;;;;3.27;1.40;;;;;;;4.27;86.60;100452.28;1666295;84;21120;-79
2022/02/05 10:58:17;;;;;;;;;;;;;;;4.36;86.65;100445.95;1677151;83;21149;-79
2022/02/05 11:07:33;;;;;;;2.05;1.32;;;;;;;4.42;86.17;100480.97;1684148;81;21062;-82
2022/02/05 11:11:38;;;;;;;4.47;1.95;;;;;;;4.38;86.27;100498.44;1682623;83;21108;-78
2022/02/05 11:19:13;;;;;;;2.50;0.88;;;;;;;4.27;85.90;100498.35;1662645;85;20953;-78
2022/02/05 11:21:57;;;;;;;5.58;1.30;;;;;;;4.18;85.96;100508.09;1689419;84;20939;-76
2022/02/05 11:24:43;;;;;;;2.70;1.20;;;;;;;4.08;85.84;100498.66;1676956;84;21008;-75
2022/02/05 11:27:28;;;;;;;2.70;1.00;;;;;;;3.97;85.96;100509.22;1673994;84;21123;-78
2022/02/05 11:30:32;;;;;;;3.08;0.72;;;;;;;3.90;86.01;100517.25;1685131;83;21048;-77
2022/02/05 11:33:29;;;;;;;3.98;1.62;;;;;;;3.91;86.12;100512.58;1688248;83;21644;-78
2022/02/05 11:39:03;;;;;;;2.42;0.95;;;;;;;4.04;86.25;100527.62;1685646;83;21010;-77
2022/02/05 11:41:50;;;;;;;3.65;0.95;;;;;;;4.12;86.29;100531.52;1687035;84;21122;-77
2022/02/05 11:44:40;;;;;;;3.08;0.85;;;;;;;4.19;86.17;100530.28;1688963;84;26722;-78
2022/02/05 11:47:40;;;;;;;2.12;0.88;;;;;;;4.25;86.06;100534.17;1689175;83;21133;-77
2022/02/05 11:50:27;;;;;;;6.53;1.10;;;;;;;4.31;86.03;100529.52;1646720;86;21060;-79
2022/02/05 11:53:12;;;;;;;4.63;1.30;;;;;;;4.37;85.95;100541.52;1695314;84;21045;-74
2022/02/05 11:56:19;;;;;;;1.80;0.78;;;;;;;4.36;85.93;100545.78;1654153;86;21048;-77
2022/02/05 11:59:04;;;;;;;6.70;1.10;;;;;;;4.37;85.93;100540.23;1695870;84;21060;-78
2022/02/05 12:01:50;;;;;;;3.72;1.70;;;;;;;4.42;86.00;100550.95;1688638;84;21010;-79
2022/02/05 12:04:35;;;;;;;3.92;1.70;;;;;;;4.47;86.04;100548.00;1694791;84;21542;-77
2022/02/05 12:07:19;;;;;;;3.92;1.65;;;;;;;4.52;85.94;100550.59;1687682;83;21603;-78
2022/02/05 12:10:51;;;;;;;3.85;1.25;;;;;;;4.52;85.78;100564.26;1685361;83;21423;-77
2022/02/05 12:13:38;;;;;;;2.83;1.30;;;;;;;4.48;85.77;100567.64;1690040;84;21092;-79
2022/02/05 12:16:22;;;;;;;6.10;0.93;;;;;;;4.49;85.77;100572.34;1695827;83;21535;-76
2022/02/05 12:19:16;;;;;;;6.42;0.90;;;;;;;4.49;85.68;100571.91;1689000;83;21083;-76
2022/02/05 12:22:12;;;;;;;2.65;1.22;;;;;;;4.55;85.81;100574.52;1686469;81;21002;-75
2022/02/05 12:25:16;;;;;;;2.27;1.30;;;;;;;4.62;85.82;100569.88;1696574;84;20933;-75
2022/02/05 12:28:31;;;;;;;3.92;1.17;;;;;;;4.74;85.59;100566.95;1686355;84;20965;-76
2022/02/05 12:31:36;;;;;;;1.75;0.72;;;;;;;4.76;85.52;100556.29;1645515;85;21600;-75
2022/02/05 12:34:22;;;;;;;2.25;0.90;;;;;;;4.80;85.46;100557.59;1659482;85;21115;-75
2022/02/05 12:37:07;;;;;;;3.65;0.70;;;;;;;4.82;85.30;100558.89;1640501;85;21115;-75
2022/02/05 12:39:53;;;;;;;4.72;1.15;;;;;;;4.81;84.98;100563.58;1656964;85;21388;-75
2022/02/05 12:42:40;;;;;;;2.67;0.88;;;;;;;4.80;85.13;100565.70;1592056;88;21091;-76
2022/02/05 12:45:55;;;;;;;;;;;;;;;4.84;85.19;100563.60;1645895;85;21088;-75
2022/02/05 12:48:35;;;;;;;3.65;0.80;;;;;;;4.90;85.25;100565.78;1642265;85;20383;-76
2022/02/05 12:51:20;;;;;;;3.02;1.27;;;;;;;4.97;85.18;100563.69;1644183;86;21097;-76
2022/02/05 12:54:11;;;;;;;2.05;0.93;;;;;;;5.02;85.17;100575.25;1644378;86;21095;-75
2022/02/05 12:56:58;;;;;;;2.30;0.80;;;;;;;5.01;84.92;100564.56;1636689;86;21156;-75
2022/02/05 12:59:42;;;;;;;3.37;0.98;;;;;;;4.97;84.72;100578.20;1642222;86;21535;-76
2022/02/05 13:02:27;;;;;;;4.78;1.00;;;;;;;4.90;84.61;100577.73;1666765;84;21087;-79
2022/02/05 13:05:12;;;;;;;2.72;0.93;;;;;;;4.82;84.67;100589.20;1677424;85;21113;-80
2022/02/05 13:07:58;;;;;;;5.10;0.78;;;;;;;4.74;84.62;100593.84;1685601;83;21000;-79
2022/02/05 13:10:45;;;;;;;4.65;0.90;;;;;;;4.64;84.56;100594.22;1689100;84;21599;-79
2022/02/05 13:13:33;;;;;;;4.85;1.10;;;;;;;4.56;84.38;100608.67;1689238;84;21059;-78
2022/02/05 13:16:16;;;;;;;8.13;1.70;;;;;;;4.44;84.34;100608.14;1699067;83;21040;-78
2022/02/05 13:19:10;;;;;;;1.67;0.50;;;;;;;4.37;84.25;100607.65;1688840;84;21105;-78
2022/02/05 13:36:39;;;;;;;3.47;0.90;;;;;;;4.39;84.21;100631.56;1675271;83;21115;-78
2022/02/05 13:42:25;;;;;;;2.42;1.00;;;;;;;4.39;84.11;100648.20;1682398;84;20978;-77
2022/02/05 13:45:23;;;;;;;5.62;1.25;;;;;;;4.40;84.13;100643.94;1682729;84;20961;-78
2022/02/05 13:48:02;;;;;;;13.35;6.87;;;;;;;4.41;84.19;100643.95;1682169;84;20933;-76
2022/02/05 13:50:46;;;;;;;12.35;5.95;;;;;;;4.47;84.19;100618.41;1693211;83;20961;-76
2022/02/05 13:53:30;;;;;;;7.12;2.87;;;;;;;4.57;84.15;100635.56;1673648;84;21381;-78
2022/02/05 13:56:15;;;;;;;70.25;33.67;;;;;;;4.65;84.15;100644.17;1695714;84;21849;-76
2022/02/05 13:59:00;;;;;;;34.95;17.35;;;;;;;4.73;84.08;100641.65;1687645;83;20948;-76
2022/02/05 14:01:45;;;;;;;21.15;10.43;;;;;;;4.83;84.09;100644.72;1686263;83;20929;-76
2022/02/05 14:04:30;;;;;;;18.15;8.05;;;;;;;4.88;83.99;100654.58;1693097;83;21356;-77
2022/02/05 14:07:14;;;;;;;21.12;11.00;;;;;;;4.88;83.76;100661.41;1686725;83;21449;-76
2022/02/05 14:10:12;;;;;;;26.48;15.30;;;;;;;4.87;83.63;100661.83;1683140;83;20905;-77
2022/02/05 14:12:59;;;;;;;8.75;5.95;;;;;;;4.87;83.71;100654.57;1690461;83;21345;-77
2022/02/05 14:15:52;;;;;;;9.25;3.85;;;;;;;4.87;83.70;100657.13;1691142;83;20917;-77
2022/02/05 14:18:56;;;;;;;28.47;17.25;;;;;;;4.86;83.56;100651.15;1680985;83;21853;-76
2022/02/05 14:21:48;;;;;;;17.35;10.70;;;;;;;4.87;83.64;100663.11;1681126;83;20979;-77
2022/02/05 14:24:34;;;;;;;7.62;3.47;;;;;;;4.90;83.62;100668.26;1692887;84;20929;-76
2022/02/05 14:27:24;;;;;;;;;;;;;;;4.90;83.58;100673.81;1696253;84;20929;-77
2022/02/05 14:30:13;;;;;;;5.72;2.15;;;;;;;4.90;83.37;100682.78;1691330;84;20660;-76
2022/02/05 14:32:59;;;;;;;9.03;3.80;;;;;;;4.89;83.49;100682.34;1667057;84;20949;-77
2022/02/05 14:41:31;;;;;;;7.20;4.25;;;;;;;4.87;83.45;100684.03;1695109;84;20925;-77
2022/02/05 14:44:16;;;;;;;;;;;;;;;4.82;83.39;100684.41;1697588;84;21418;-77
2022/02/05 14:47:03;;;;;;;5.05;2.30;;;;;;;4.80;83.16;100688.24;1683977;83;20556;-77
2022/02/05 14:49:48;;;;;;;5.75;2.80;;;;;;;4.78;83.28;100692.92;1678443;84;20976;-77
2022/02/05 14:52:32;;;;;;;4.30;1.82;;;;;;;4.80;83.30;100701.48;1681219;83;21080;-77
2022/02/05 14:55:19;;;;;;;4.33;3.10;;;;;;;4.77;83.34;100700.16;1676937;83;21539;-77
2022/02/05 14:58:03;;;;;;;4.35;1.30;;;;;;;4.74;83.30;100699.72;1687245;84;21117;-76
2022/02/05 15:00:48;;;;;;;4.37;1.90;;;;;;;4.73;83.22;100709.95;1690735;83;21615;-77
2022/02/05 15:03:35;;;;;;;3.80;1.67;;;;;;;4.71;83.20;100709.94;1694229;84;21090;-77
2022/02/05 15:06:19;;;;;;;;;;;;;;;4.70;83.20;100708.64;1687538;83;20920;-77
2022/02/05 15:09:06;;;;;;;10.08;7.37;;;;;;;4.65;82.88;100705.64;1683910;83;20150;-77
2022/02/05 15:11:51;;;;;;;25.68;18.35;;;;;;;4.62;83.04;100700.49;1677893;83;20942;-75
2022/02/05 15:14:35;;;;;;;8.08;4.87;;;;;;;4.60;83.00;100700.90;1689629;83;20929;-75
2022/02/05 15:17:19;;;;;;;17.95;11.83;;;;;;;4.59;83.00;100708.14;1697677;83;20972;-76
2022/02/05 15:20:05;;;;;;;10.28;6.72;;;;;;;4.58;82.91;100707.70;1689760;84;21437;-77
2022/02/05 15:22:51;;;;;;;8.97;4.13;;;;;;;4.57;82.92;100714.09;1653696;86;21409;-77
2022/02/05 15:25:36;;;;;;;6.33;2.58;;;;;;;4.56;82.86;100719.64;1665320;84;21537;-76
2022/02/05 15:28:20;;;;;;;4.85;2.08;;;;;;;4.54;82.80;100724.30;1662665;86;20952;-76
2022/02/05 15:31:05;;;;;;;3.40;1.67;;;;;;;4.52;82.84;100725.56;1694082;83;20948;-76
2022/02/05 15:33:55;;;;;;;4.08;1.80;;;;;;;4.51;82.77;100728.11;1684894;84;21488;-76
2022/02/05 15:36:46;;;;;;;1.87;1.20;;;;;;;4.50;82.79;100735.36;1683435;84;21539;-76
2022/02/05 15:39:44;;;;;;;6.10;1.67;;;;;;;4.49;82.72;100737.48;1696740;84;20929;-76
2022/02/05 15:45:16;;;;;;;11.12;9.75;;;;;;;4.47;82.35;100744.28;1694611;84;20205;-77
2022/02/05 15:48:00;;;;;;;10.38;6.20;;;;;;;4.45;82.56;100745.55;1651779;86;21135;-77
2022/02/05 15:50:45;;;;;;;9.45;5.28;;;;;;;4.44;82.57;100748.09;1684911;84;21601;-77
2022/02/05 15:53:33;;;;;;;13.03;4.70;;;;;;;4.43;82.59;100752.77;1690734;83;21106;-77
2022/02/05 15:59:16;;;;;;;10.05;3.10;;;;;;;4.40;82.47;100758.72;1657128;83;20282;-77